createdAt,value
2017-12-17T00:00:11.771Z,86.11
2017-12-17T00:20:47.659Z,85.82
2017-12-17T00:41:22.311Z,82.73
2017-12-17T01:01:58.508Z,82.42
2017-12-17T01:22:31.629Z,80.57
2017-12-17T01:43:05.979Z,79.32
2017-12-17T02:03:42.172Z,81.16
2017-12-17T02:24:15.293Z,75.89
2017-12-17T02:44:48.852Z,77.56
2017-12-17T03:05:20.926Z,75.75
2017-12-17T03:25:55.292Z,77.26
2017-12-17T03:46:28.084Z,75.55
2017-12-17T04:07:01.694Z,75.80
2017-12-17T04:27:35.915Z,76.48
2017-12-17T04:48:06.847Z,77.57
2017-12-17T05:08:40.873Z,77.86
2017-12-17T05:29:14.541Z,77.94
2017-12-17T05:49:46.500Z,79.57
2017-12-17T06:10:19.621Z,84.15
2017-12-17T06:30:54.216Z,85.00
2017-12-17T06:51:27.104Z,81.18
2017-12-17T07:12:02.361Z,78.58
2017-12-17T07:32:34.560Z,80.59
2017-12-17T07:53:08.627Z,82.67
2017-12-17T08:13:42.623Z,83.75
2017-12-17T08:34:17.615Z,81.08
2017-12-17T08:54:55.652Z,84.26
2017-12-17T09:15:30.920Z,81.47
2017-12-17T09:36:09.892Z,81.35
2017-12-17T09:56:49.456Z,81.38
2017-12-17T10:17:24.728Z,81.49
2017-12-17T10:37:59.999Z,80.71
2017-12-17T10:58:33.122Z,82.05
2017-12-17T11:19:05.321Z,82.46
2017-12-17T11:39:40.589Z,81.80
2017-12-17T12:00:16.787Z,81.88
2017-12-17T12:20:49.216Z,81.83
2017-12-17T12:41:19.040Z,81.89
2017-12-17T13:01:51.238Z,82.07
2017-12-17T13:22:22.518Z,82.26
2017-12-17T13:42:54.716Z,82.35
2017-12-17T14:03:29.987Z,82.80
2017-12-17T14:24:04.029Z,83.73
2017-12-17T15:02:41.387Z,82.96
2017-12-17T15:23:14.402Z,83.69
2017-12-17T15:43:51.209Z,83.27
2017-12-17T16:04:24.942Z,85.48
2017-12-17T16:25:00.830Z,84.82
2017-12-17T16:45:39.484Z,84.80
2017-12-17T17:06:17.828Z,85.36
2017-12-17T17:26:51.871Z,85.88
2017-12-17T17:47:28.986Z,85.66
2017-12-17T18:08:02.109Z,87.04
2017-12-17T18:28:35.816Z,86.00
2017-12-17T18:49:09.578Z,85.24
2017-12-17T19:09:40.855Z,84.22
2017-12-17T19:30:16.132Z,83.46
2017-12-17T19:50:49.578Z,84.14
2017-12-17T20:11:20.532Z,84.67
2017-12-17T20:31:57.341Z,84.07
2017-12-17T20:52:32.238Z,85.59
2017-12-17T21:13:06.456Z,84.23
2017-12-17T21:33:40.396Z,85.26
2017-12-17T21:54:15.665Z,85.45
2017-12-17T22:14:50.937Z,84.25
2017-12-17T22:35:24.062Z,84.27
2017-12-17T22:56:00.253Z,82.91
2017-12-17T23:16:33.794Z,80.55
2017-12-17T23:37:07.724Z,79.65
2017-12-17T23:57:42.998Z,79.96
